createdAt,value
2016-05-12T00:00:54.526Z,0
2016-05-12T00:01:54.294Z,0
2016-05-12T00:02:54.266Z,0
2016-05-12T00:03:54.253Z,0
2016-05-12T00:04:54.083Z,0
2016-05-12T00:05:54.055Z,0
2016-05-12T00:06:54.182Z,0
2016-05-12T00:07:54.013Z,0
2016-05-12T00:08:54.157Z,0
2016-05-12T00:09:54.127Z,0
2016-05-12T00:10:54.116Z,0
2016-05-12T00:11:54.087Z,0
2016-05-12T00:12:54.074Z,0
2016-05-12T00:13:54.046Z,0
2016-05-12T00:14:54.032Z,0
2016-05-12T00:15:54.176Z,0
2016-05-12T00:16:53.990Z,0
2016-05-12T00:17:53.978Z,0
2016-05-12T00:18:53.949Z,0
2016-05-12T00:19:53.937Z,0
2016-05-12T00:20:53.767Z,0
2016-05-12T00:21:53.895Z,0
2016-05-12T00:22:53.866Z,0
2016-05-12T00:23:53.713Z,0
2016-05-12T00:24:53.841Z,0
2016-05-12T00:25:53.812Z,0
2016-05-12T00:26:53.798Z,0
2016-05-12T00:27:53.630Z,0
2016-05-12T00:28:53.757Z,0
2016-05-12T00:29:53.728Z,0
2016-05-12T00:30:54.122Z,0
2016-05-12T00:31:53.703Z,0
2016-05-12T00:32:53.675Z,0
2016-05-12T00:33:53.661Z,0
2016-05-12T00:34:53.633Z,0
2016-05-12T00:35:53.620Z,0
2016-05-12T00:36:53.591Z,0
2016-05-12T00:37:53.578Z,0
2016-05-12T00:38:53.566Z,0
2016-05-12T00:39:53.553Z,0
2016-05-12T00:40:53.368Z,0
2016-05-12T00:41:53.496Z,0
2016-05-12T00:42:53.482Z,0
2016-05-12T00:43:53.469Z,0
2016-05-12T00:44:53.440Z,0
2016-05-12T00:45:53.709Z,0
2016-05-12T00:46:53.400Z,0
2016-05-12T00:47:53.387Z,0
2016-05-12T00:48:53.358Z,0
2016-05-12T00:49:53.345Z,0
2016-05-12T00:50:53.332Z,0
2016-05-12T00:51:53.147Z,0
2016-05-12T00:52:53.290Z,0
2016-05-12T00:53:53.262Z,0
2016-05-12T00:54:53.234Z,0
2016-05-12T00:55:53.220Z,0
2016-05-12T00:56:53.208Z,0
2016-05-12T00:57:53.023Z,0
2016-05-12T00:58:53.167Z,0
2016-05-12T00:59:52.997Z,0
2016-05-12T01:00:52.811Z,0
2016-05-12T01:01:53.097Z,0
2016-05-12T01:02:53.084Z,0
2016-05-12T01:03:53.070Z,0
2016-05-12T01:04:53.041Z,0
2016-05-12T01:05:53.028Z,0
2016-05-12T01:06:52.860Z,0
2016-05-12T01:07:52.831Z,0
2016-05-12T01:08:52.975Z,0
2016-05-12T01:09:52.946Z,0
2016-05-12T01:10:52.933Z,0
2016-05-12T01:11:52.904Z,0
2016-05-12T01:12:52.876Z,0
2016-05-12T01:13:52.879Z,0
2016-05-12T01:14:52.850Z,0
2016-05-12T01:15:52.822Z,0
2016-05-12T01:16:53.183Z,0
2016-05-12T01:17:52.779Z,0
2016-05-12T01:18:52.767Z,0
2016-05-12T01:19:52.738Z,0
2016-05-12T01:20:52.740Z,0
2016-05-12T01:21:52.697Z,0
2016-05-12T01:22:52.528Z,0
2016-05-12T01:23:52.499Z,0
2016-05-12T01:24:52.643Z,0
2016-05-12T01:25:52.614Z,0
2016-05-12T01:26:52.445Z,0
2016-05-12T01:27:52.603Z,0
2016-05-12T01:28:52.403Z,0
2016-05-12T01:29:52.531Z,0
2016-05-12T01:30:52.518Z,0
2016-05-12T01:31:52.348Z,0
2016-05-12T01:32:52.476Z,0
2016-05-12T01:33:52.463Z,0
2016-05-12T01:34:52.435Z,0
2016-05-12T01:35:52.422Z,0
2016-05-12T01:36:52.409Z,0
2016-05-12T01:37:52.225Z,0
2016-05-12T01:38:52.352Z,0
2016-05-12T01:39:52.370Z,0
2016-05-12T01:40:52.310Z,0
2016-05-12T01:41:52.298Z,0
2016-05-12T01:42:52.269Z,0
2016-05-12T01:43:52.255Z,0
2016-05-12T01:44:52.227Z,0
2016-05-12T01:45:52.215Z,0
2016-05-12T01:46:52.202Z,0
2016-05-12T01:47:52.188Z,0
2016-05-12T01:48:52.144Z,0
2016-05-12T01:49:52.132Z,0
2016-05-12T01:50:52.103Z,0
2016-05-12T01:51:52.090Z,0
2016-05-12T01:52:51.921Z,0
2016-05-12T01:53:52.048Z,0
2016-05-12T01:54:52.020Z,0
2016-05-12T01:55:52.007Z,0
2016-05-12T01:56:51.979Z,0
2016-05-12T01:57:51.809Z,0
2016-05-12T01:58:51.640Z,0
2016-05-12T01:59:51.924Z,0
2016-05-12T02:00:51.755Z,0
2016-05-12T02:01:51.741Z,0
2016-05-12T02:02:51.885Z,0
2016-05-12T02:03:51.857Z,0
2016-05-12T02:04:51.828Z,0
2016-05-12T02:05:51.799Z,0
2016-05-12T02:06:51.786Z,0
2016-05-12T02:07:51.758Z,0
2016-05-12T02:08:51.745Z,0
2016-05-12T02:09:51.716Z,0
2016-05-12T02:10:51.703Z,0
2016-05-12T02:11:51.675Z,0
2016-05-12T02:12:51.505Z,0
2016-05-12T02:13:51.633Z,0
2016-05-12T02:14:51.621Z,0
2016-05-12T02:15:51.591Z,0
2016-05-12T02:16:51.424Z,0
2016-05-12T02:17:51.551Z,0
2016-05-12T02:18:51.537Z,0
2016-05-12T02:19:51.353Z,0
2016-05-12T02:20:51.496Z,0
2016-05-12T02:21:51.468Z,0
2016-05-12T02:22:51.298Z,0
2016-05-12T02:23:51.426Z,0
2016-05-12T02:24:51.413Z,0
2016-05-12T02:25:51.244Z,0
2016-05-12T02:26:51.371Z,0
2016-05-12T02:27:51.343Z,0
2016-05-12T02:28:51.173Z,0
2016-05-12T02:29:51.301Z,0
2016-05-12T02:30:51.289Z,0
2016-05-12T02:31:51.120Z,0
2016-05-12T02:32:51.248Z,0
2016-05-12T02:33:51.234Z,0
2016-05-12T02:34:51.049Z,0
2016-05-12T02:35:51.225Z,0
2016-05-12T02:36:51.164Z,0
2016-05-12T02:37:50.994Z,0
2016-05-12T02:38:51.123Z,0
2016-05-12T02:39:51.110Z,0
2016-05-12T02:40:51.081Z,0
2016-05-12T02:41:51.053Z,0
2016-05-12T02:42:51.055Z,0
2016-05-12T02:43:51.027Z,0
2016-05-12T02:44:50.841Z,0
2016-05-12T02:45:50.813Z,0
2016-05-12T02:46:50.800Z,0
2016-05-12T02:47:50.928Z,0
2016-05-12T02:48:50.915Z,0
2016-05-12T02:49:50.887Z,0
2016-05-12T02:50:50.858Z,0
2016-05-12T02:51:50.846Z,0
2016-05-12T02:52:50.832Z,0
2016-05-12T02:53:50.663Z,0
2016-05-12T02:54:50.634Z,0
2016-05-12T02:55:50.762Z,0
2016-05-12T02:56:50.748Z,0
2016-05-12T02:57:50.564Z,0
2016-05-12T02:58:50.693Z,4
2016-05-12T02:59:50.523Z,4
2016-05-12T03:00:50.667Z,4
2016-05-12T03:01:50.887Z,0
2016-05-12T03:02:50.609Z,0
2016-05-12T03:03:50.439Z,4
2016-05-12T03:04:50.428Z,4
2016-05-12T03:05:50.555Z,4
2016-05-12T03:06:50.526Z,4
2016-05-12T03:07:50.216Z,8
2016-05-12T03:08:50.484Z,4
2016-05-12T03:09:50.472Z,4
2016-05-12T03:10:50.303Z,8
2016-05-12T03:11:50.430Z,8
2016-05-12T03:12:50.402Z,8
2016-05-12T03:13:50.389Z,12
2016-05-12T03:14:50.204Z,12
2016-05-12T03:15:50.347Z,16
2016-05-12T03:16:50.490Z,16
2016-05-12T03:17:50.150Z,20
2016-05-12T03:18:50.277Z,20
2016-05-12T03:19:50.264Z,28
2016-05-12T03:20:50.236Z,32
2016-05-12T03:21:50.223Z,32
2016-05-12T03:22:50.193Z,40
2016-05-12T03:23:50.212Z,48
2016-05-12T03:24:50.152Z,52
2016-05-12T03:25:49.968Z,60
2016-05-12T03:26:50.111Z,68
2016-05-12T03:27:50.082Z,76
2016-05-12T03:28:50.070Z,88
2016-05-12T03:29:50.056Z,96
2016-05-12T03:30:50.028Z,108
2016-05-12T03:31:49.859Z,120
2016-05-12T03:32:49.831Z,136
2016-05-12T03:33:49.958Z,152
2016-05-12T03:34:49.945Z,164
2016-05-12T03:35:49.931Z,184
2016-05-12T03:36:49.903Z,200
2016-05-12T03:37:49.875Z,224
2016-05-12T03:38:49.706Z,244
2016-05-12T03:39:49.834Z,272
2016-05-12T03:40:49.664Z,300
2016-05-12T03:41:49.635Z,328
2016-05-12T03:42:49.763Z,360
2016-05-12T03:43:49.750Z,392
2016-05-12T03:44:49.738Z,428
2016-05-12T03:45:49.708Z,460
2016-05-12T03:46:50.274Z,504
2016-05-12T03:47:49.668Z,540
2016-05-12T03:48:49.483Z,580
2016-05-12T03:49:49.626Z,628
2016-05-12T03:50:49.597Z,672
2016-05-12T03:51:49.585Z,728
2016-05-12T03:52:49.557Z,780
2016-05-12T03:53:49.527Z,832
2016-05-12T03:54:49.530Z,892
2016-05-12T03:55:49.345Z,952
2016-05-12T03:56:49.473Z,1016
2016-05-12T03:57:49.460Z,1076
2016-05-12T03:58:49.432Z,1140
2016-05-12T03:59:49.419Z,1200
2016-05-12T04:00:49.390Z,1264
2016-05-12T04:01:49.940Z,1328
2016-05-12T04:02:49.348Z,1396
2016-05-12T04:03:49.320Z,1464
2016-05-12T04:04:49.167Z,1528
2016-05-12T04:05:49.279Z,1600
2016-05-12T04:06:49.265Z,1672
2016-05-12T04:07:49.253Z,1740
2016-05-12T04:08:49.224Z,1820
2016-05-12T04:09:49.211Z,1892
2016-05-12T04:10:49.183Z,1968
2016-05-12T04:11:49.154Z,2040
2016-05-12T04:12:49.141Z,2112
2016-05-12T04:13:49.128Z,2184
2016-05-12T04:14:49.099Z,2260
2016-05-12T04:15:49.071Z,2336
2016-05-12T04:16:48.746Z,2404
2016-05-12T04:17:49.029Z,2476
2016-05-12T04:18:48.861Z,2552
2016-05-12T04:19:48.988Z,2620
2016-05-12T04:20:48.975Z,2692
2016-05-12T04:21:48.946Z,2764
2016-05-12T04:22:48.918Z,2832
2016-05-12T04:23:48.904Z,2904
2016-05-12T04:24:48.892Z,2968
2016-05-12T04:25:48.863Z,3036
2016-05-12T04:26:48.835Z,3104
2016-05-12T04:27:48.665Z,3172
2016-05-12T04:28:48.809Z,3236
2016-05-12T04:29:48.781Z,3300
2016-05-12T04:30:48.752Z,3364
2016-05-12T04:31:48.942Z,3420
2016-05-12T04:32:48.710Z,3488
2016-05-12T04:33:48.713Z,3544
2016-05-12T04:34:48.700Z,3604
2016-05-12T04:35:48.656Z,3660
2016-05-12T04:36:48.658Z,3708
2016-05-12T04:37:48.615Z,3764
2016-05-12T04:38:48.587Z,3812
2016-05-12T04:39:48.573Z,3864
2016-05-12T04:40:48.231Z,3920
2016-05-12T04:41:48.375Z,3984
2016-05-12T04:42:48.580Z,4056
2016-05-12T04:43:48.490Z,4120
2016-05-12T04:44:48.462Z,4180
2016-05-12T04:45:48.292Z,4220
2016-05-12T04:46:48.514Z,4276
2016-05-12T04:47:48.250Z,4324
2016-05-12T04:48:48.378Z,4380
2016-05-12T04:49:48.365Z,4420
2016-05-12T04:50:48.338Z,4464
2016-05-12T04:51:48.324Z,4512
2016-05-12T04:52:48.296Z,4564
2016-05-12T04:53:48.266Z,4600
2016-05-12T04:54:48.254Z,4628
2016-05-12T04:55:48.241Z,4676
2016-05-12T04:56:48.213Z,4720
2016-05-12T04:57:48.199Z,4748
2016-05-12T04:58:47.874Z,4772
2016-05-12T04:59:48.158Z,4812
2016-05-12T05:00:48.129Z,4852
2016-05-12T05:01:48.148Z,4892
2016-05-12T05:02:48.103Z,4936
2016-05-12T05:03:48.076Z,4992
2016-05-12T05:04:48.062Z,5048
2016-05-12T05:05:48.034Z,5108
2016-05-12T05:06:47.865Z,5164
2016-05-12T05:07:47.992Z,5200
2016-05-12T05:08:47.979Z,5252
2016-05-12T05:09:47.950Z,5320
2016-05-12T05:10:47.937Z,5404
2016-05-12T05:11:48.925Z,5488
2016-05-12T05:12:47.897Z,5572
2016-05-12T05:13:47.867Z,5660
2016-05-12T05:14:47.855Z,5744
2016-05-12T05:15:47.825Z,5836
2016-05-12T05:16:48.235Z,5920
2016-05-12T05:17:47.644Z,6000
2016-05-12T05:18:47.772Z,6072
2016-05-12T05:19:47.977Z,6168
2016-05-12T05:20:47.730Z,6268
2016-05-12T05:21:47.733Z,6348
2016-05-12T05:22:47.688Z,6432
2016-05-12T05:23:47.677Z,6540
2016-05-12T05:24:47.679Z,6644
2016-05-12T05:25:47.635Z,6732
2016-05-12T05:26:47.621Z,6804
2016-05-12T05:27:47.437Z,6884
2016-05-12T05:28:47.595Z,6944
2016-05-12T05:29:47.551Z,7012
2016-05-12T05:30:47.538Z,7020
2016-05-12T05:31:47.244Z,7112
2016-05-12T05:32:47.543Z,7236
2016-05-12T05:33:47.484Z,7300
2016-05-12T05:34:47.456Z,7348
2016-05-12T05:35:47.426Z,7400
2016-05-12T05:36:47.414Z,7484
2016-05-12T05:37:47.400Z,7540
2016-05-12T05:38:47.373Z,7604
2016-05-12T05:39:47.360Z,7720
2016-05-12T05:40:47.347Z,7860
2016-05-12T05:41:47.318Z,8020
2016-05-12T05:42:47.289Z,8092
2016-05-12T05:43:47.275Z,8104
2016-05-12T05:44:47.264Z,8156
2016-05-12T05:45:47.250Z,8212
2016-05-12T05:46:47.238Z,8296
2016-05-12T05:47:47.209Z,8360
2016-05-12T05:48:47.039Z,8392
2016-05-12T05:49:47.167Z,8448
2016-05-12T05:50:47.155Z,8536
2016-05-12T05:51:47.141Z,8712
2016-05-12T05:52:47.113Z,8740
2016-05-12T05:53:47.099Z,8788
2016-05-12T05:54:47.071Z,8868
2016-05-12T05:55:47.075Z,8944
2016-05-12T05:56:47.046Z,8996
2016-05-12T05:57:47.017Z,9112
2016-05-12T05:58:47.004Z,9256
2016-05-12T05:59:46.991Z,11752
2016-05-12T06:00:46.979Z,18016
2016-05-12T06:01:47.293Z,23136
2016-05-12T06:02:46.952Z,23488
2016-05-12T06:03:46.924Z,23904
2016-05-12T06:04:46.896Z,24736
2016-05-12T06:05:46.882Z,24992
2016-05-12T06:06:46.870Z,24928
2016-05-12T06:07:46.856Z,25856
2016-05-12T06:08:46.843Z,26720
2016-05-12T06:09:46.830Z,28064
2016-05-12T06:10:46.803Z,28224
2016-05-12T06:11:46.789Z,27840
2016-05-12T06:12:46.667Z,27296
2016-05-12T06:13:46.763Z,28448
2016-05-12T06:14:46.750Z,29312
2016-05-12T06:15:46.737Z,29632
2016-05-12T06:16:46.850Z,29760
2016-05-12T06:17:46.711Z,30048
2016-05-12T06:18:46.683Z,30656
2016-05-12T06:19:46.686Z,31392
2016-05-12T06:20:46.657Z,30560
2016-05-12T06:21:46.644Z,30688
2016-05-12T06:22:46.616Z,30944
2016-05-12T06:23:46.462Z,30944
2016-05-12T06:24:46.605Z,31424
2016-05-12T06:25:46.608Z,30976
2016-05-12T06:26:46.580Z,29824
2016-05-12T06:27:46.410Z,29856
2016-05-12T06:28:46.554Z,30560
2016-05-12T06:29:46.525Z,29120
2016-05-12T06:30:46.512Z,27744
2016-05-12T06:31:46.499Z,26560
2016-05-12T06:32:46.486Z,18816
2016-05-12T06:33:46.458Z,11020
2016-05-12T06:34:46.460Z,8976
2016-05-12T06:35:46.431Z,8848
2016-05-12T06:36:46.435Z,9000
2016-05-12T06:37:46.421Z,9224
2016-05-12T06:38:46.424Z,9644
2016-05-12T06:39:46.381Z,10284
2016-05-12T06:40:46.399Z,12004
2016-05-12T06:41:46.370Z,14112
2016-05-12T06:42:46.342Z,15408
2016-05-12T06:43:46.359Z,15436
2016-05-12T06:44:46.315Z,15164
2016-05-12T06:45:46.303Z,15460
2016-05-12T06:46:46.289Z,26368
2016-05-12T06:47:46.277Z,51584
2016-05-12T06:48:46.247Z,67264
2016-05-12T06:49:46.293Z,68384
2016-05-12T06:50:46.308Z,56224
2016-05-12T06:51:46.353Z,44736
2016-05-12T06:52:46.383Z,37856
2016-05-12T06:53:46.414Z,36288
2016-05-12T06:54:46.401Z,34208
2016-05-12T06:55:46.420Z,34048
2016-05-12T06:56:46.265Z,35616
2016-05-12T06:57:46.408Z,34976
2016-05-12T06:58:46.426Z,35744
2016-05-12T06:59:46.418Z,35840
2016-05-12T07:00:46.411Z,35872
2016-05-12T07:01:46.622Z,39200
2016-05-12T07:02:46.240Z,38240
2016-05-12T07:03:46.372Z,38528
2016-05-12T07:04:46.221Z,40032
2016-05-12T07:05:46.194Z,40448
2016-05-12T07:06:46.356Z,40384
2016-05-12T07:07:46.344Z,39328
2016-05-12T07:08:46.333Z,38240
2016-05-12T07:09:46.322Z,38848
2016-05-12T07:10:46.309Z,39520
2016-05-12T07:11:46.297Z,37312
2016-05-12T07:12:46.268Z,36320
2016-05-12T07:13:46.272Z,40032
2016-05-12T07:14:46.260Z,43136
2016-05-12T07:15:46.247Z,43616
2016-05-12T07:16:46.078Z,42112
2016-05-12T07:17:46.237Z,42560
2016-05-12T07:18:46.225Z,45504
2016-05-12T07:19:46.040Z,44704
2016-05-12T07:20:46.183Z,45120
2016-05-12T07:21:46.030Z,45664
2016-05-12T07:22:46.173Z,44224
2016-05-12T07:23:46.161Z,44832
2016-05-12T07:24:46.007Z,45216
2016-05-12T07:25:46.134Z,45632
2016-05-12T07:26:45.965Z,44896
2016-05-12T07:27:45.953Z,43968
2016-05-12T07:28:46.096Z,42336
2016-05-12T07:29:45.942Z,41728
2016-05-12T07:30:46.086Z,42944
2016-05-12T07:31:45.916Z,43168
2016-05-12T07:32:46.060Z,42912
2016-05-12T07:33:46.047Z,43488
2016-05-12T07:34:46.033Z,45760
2016-05-12T07:35:45.865Z,46560
2016-05-12T07:36:46.024Z,46912
2016-05-12T07:37:45.854Z,46752
2016-05-12T07:38:45.998Z,46464
2016-05-12T07:39:45.985Z,48128
2016-05-12T07:40:45.816Z,49280
2016-05-12T07:41:45.959Z,47424
2016-05-12T07:42:45.962Z,47072
2016-05-12T07:43:45.932Z,46016
2016-05-12T07:44:45.936Z,47520
2016-05-12T07:45:45.923Z,49888
2016-05-12T07:46:45.910Z,49440
2016-05-12T07:47:45.912Z,47520
2016-05-12T07:48:45.900Z,46048
2016-05-12T07:49:45.887Z,45248
2016-05-12T07:50:45.873Z,47360
2016-05-12T07:51:45.862Z,49824
2016-05-12T07:52:45.723Z,50720
2016-05-12T07:53:45.835Z,53216
2016-05-12T07:54:45.822Z,49504
2016-05-12T07:55:45.825Z,48192
2016-05-12T07:56:45.812Z,47872
2016-05-12T07:57:45.799Z,48832
2016-05-12T07:58:45.786Z,49728
2016-05-12T07:59:45.788Z,47584
2016-05-12T08:00:45.775Z,48960
2016-05-12T08:01:46.528Z,54720
2016-05-12T08:02:45.844Z,53728
2016-05-12T08:03:45.596Z,53152
2016-05-12T08:04:45.739Z,48736
2016-05-12T08:05:45.727Z,49728
2016-05-12T08:06:45.574Z,53632
2016-05-12T08:07:45.560Z,54240
2016-05-12T08:08:45.703Z,56960
2016-05-12T08:09:45.535Z,54016
2016-05-12T08:10:45.378Z,52224
2016-05-12T08:11:45.680Z,58880
2016-05-12T08:12:45.668Z,61504
2016-05-12T08:13:45.670Z,60704
2016-05-12T08:14:45.498Z,59744
2016-05-12T08:15:45.660Z,58464
2016-05-12T08:16:45.646Z,58176
2016-05-12T08:17:45.631Z,65152
2016-05-12T08:18:45.619Z,63232
2016-05-12T08:19:45.606Z,62176
2016-05-12T08:20:45.592Z,64480
2016-05-12T08:21:45.596Z,65024
2016-05-12T08:22:45.442Z,66656
2016-05-12T08:23:45.584Z,66592
2016-05-12T08:24:45.572Z,64416
2016-05-12T08:25:45.575Z,60864
2016-05-12T08:26:45.561Z,65824
2016-05-12T08:27:45.548Z,66752
2016-05-12T08:28:45.395Z,66208
2016-05-12T08:29:45.538Z,66816
2016-05-12T08:30:45.385Z,64320
2016-05-12T08:31:45.700Z,67008
2016-05-12T08:32:45.547Z,71072
2016-05-12T08:33:45.519Z,71552
2016-05-12T08:34:45.506Z,70976
2016-05-12T08:35:45.367Z,70112
2016-05-12T08:36:45.495Z,68928
2016-05-12T08:37:45.482Z,68160
2016-05-12T08:38:45.485Z,69248
2016-05-12T08:39:45.472Z,70752
2016-05-12T08:40:45.458Z,69536
2016-05-12T08:41:45.461Z,66752
2016-05-12T08:42:45.448Z,66624
2016-05-12T08:43:45.451Z,64384
2016-05-12T08:44:45.438Z,68448
2016-05-12T08:45:45.426Z,72032
2016-05-12T08:46:45.428Z,71904
2016-05-12T08:47:45.274Z,69920
2016-05-12T08:48:45.402Z,69408
2016-05-12T08:49:45.420Z,71168
2016-05-12T08:50:45.251Z,72896
2016-05-12T08:51:45.410Z,66944
2016-05-12T08:52:45.397Z,63072
2016-05-12T08:53:45.228Z,70528
2016-05-12T08:54:45.387Z,74240
2016-05-12T08:55:45.373Z,70144
2016-05-12T08:56:45.362Z,74944
2016-05-12T08:57:45.364Z,80352
2016-05-12T08:58:45.366Z,76096
2016-05-12T08:59:45.354Z,72192
2016-05-12T09:00:45.184Z,72576
2016-05-12T09:01:46.452Z,76384
2016-05-12T09:02:45.347Z,76064
2016-05-12T09:03:45.333Z,72640
2016-05-12T09:04:45.336Z,73312
2016-05-12T09:05:45.385Z,76960
2016-05-12T09:06:45.310Z,75072
2016-05-12T09:07:45.375Z,72768
2016-05-12T09:08:46.080Z,69664
2016-05-12T09:09:46.083Z,71520
2016-05-12T09:10:45.243Z,69824
2016-05-12T09:11:45.292Z,71328
2016-05-12T09:12:45.294Z,73792
2016-05-12T09:13:45.329Z,73376
2016-05-12T09:14:45.299Z,76032
2016-05-12T09:15:45.163Z,75360
2016-05-12T09:16:45.196Z,74880
2016-05-12T09:17:45.152Z,76704
2016-05-12T09:18:45.124Z,79008
2016-05-12T09:19:45.282Z,74496
2016-05-12T09:20:45.254Z,72320
2016-05-12T09:21:45.773Z,74496
2016-05-12T09:22:45.243Z,72864
2016-05-12T09:23:45.262Z,76064
2016-05-12T09:24:45.233Z,76384
2016-05-12T09:25:44.923Z,79744
2016-05-12T09:26:45.239Z,80928
2016-05-12T09:27:45.225Z,77984
2016-05-12T09:28:45.072Z,73088
2016-05-12T09:29:45.215Z,76000
2016-05-12T09:30:45.218Z,75552
2016-05-12T09:31:44.986Z,75552
2016-05-12T09:32:45.333Z,75744
2016-05-12T09:33:45.211Z,74304
2016-05-12T09:34:45.197Z,72896
2016-05-12T09:35:45.060Z,74464
2016-05-12T09:36:45.203Z,75392
2016-05-12T09:37:45.191Z,77728
2016-05-12T09:38:45.193Z,74688
2016-05-12T09:39:45.211Z,74560
2016-05-12T09:40:45.183Z,76288
2016-05-12T09:41:45.185Z,72512
2016-05-12T09:42:45.016Z,73056
2016-05-12T09:43:45.174Z,74208
2016-05-12T09:44:45.177Z,77472
2016-05-12T09:45:45.180Z,81568
2016-05-12T09:46:45.135Z,77408
2016-05-12T09:47:45.780Z,78880
2016-05-12T09:48:45.157Z,81536
2016-05-12T09:49:45.160Z,79232
2016-05-12T09:50:45.163Z,80352
2016-05-12T09:51:45.181Z,77344
2016-05-12T09:52:45.152Z,79168
2016-05-12T09:53:45.139Z,83456
2016-05-12T09:54:45.173Z,84416
2016-05-12T09:55:44.989Z,85120
2016-05-12T09:56:45.007Z,84544
2016-05-12T09:57:44.994Z,85632
2016-05-12T09:58:45.153Z,82240
2016-05-12T09:59:44.983Z,82688
2016-05-12T10:00:45.142Z,83296
2016-05-12T10:01:45.005Z,84736
2016-05-12T10:02:45.163Z,85824
2016-05-12T10:03:45.448Z,84256
2016-05-12T10:04:45.123Z,83872
2016-05-12T10:05:45.109Z,86144
2016-05-12T10:06:45.112Z,85824
2016-05-12T10:07:45.114Z,86144
2016-05-12T10:08:45.117Z,86720
2016-05-12T10:09:45.120Z,83200
2016-05-12T10:10:44.950Z,78016
2016-05-12T10:11:45.094Z,73344
2016-05-12T10:12:45.143Z,77056
2016-05-12T10:13:44.943Z,81312
2016-05-12T10:14:45.102Z,81216
2016-05-12T10:15:44.792Z,82144
2016-05-12T10:16:45.513Z,85856
2016-05-12T10:17:45.094Z,85888
2016-05-12T10:18:45.097Z,88480
2016-05-12T10:19:45.085Z,88256
2016-05-12T10:20:45.087Z,87520
2016-05-12T10:21:44.934Z,85984
2016-05-12T10:22:45.092Z,84096
2016-05-12T10:23:44.924Z,82976
2016-05-12T10:24:45.082Z,71328
2016-05-12T10:25:45.085Z,36608
2016-05-12T10:26:45.072Z,14812
2016-05-12T10:27:45.075Z,14568
2016-05-12T10:28:45.078Z,17236
2016-05-12T10:29:45.064Z,50912
2016-05-12T10:30:44.911Z,79744
2016-05-12T10:31:45.131Z,84352
2016-05-12T10:32:45.056Z,84800
2016-05-12T10:33:45.060Z,83872
2016-05-12T10:34:44.889Z,84960
2016-05-12T10:35:45.049Z,82720
2016-05-12T10:36:45.052Z,81728
2016-05-12T10:37:45.039Z,86272
2016-05-12T10:38:45.042Z,88608
2016-05-12T10:39:45.028Z,86560
2016-05-12T10:40:45.031Z,68704
2016-05-12T10:41:44.721Z,61568
2016-05-12T10:42:44.865Z,80800
2016-05-12T10:43:44.868Z,90752
2016-05-12T10:44:45.011Z,93280
2016-05-12T10:45:45.029Z,90336
2016-05-12T10:46:45.126Z,86624
2016-05-12T10:47:44.863Z,87168
2016-05-12T10:48:45.007Z,85056
2016-05-12T10:49:44.993Z,83200
2016-05-12T10:50:44.995Z,85184
2016-05-12T10:51:44.843Z,86144
2016-05-12T10:52:45.033Z,86368
2016-05-12T10:53:44.832Z,85376
2016-05-12T10:54:44.991Z,83488
2016-05-12T10:55:44.993Z,82912
2016-05-12T10:56:44.996Z,86464
2016-05-12T10:57:44.999Z,87616
2016-05-12T10:58:44.971Z,86144
2016-05-12T10:59:44.989Z,87648
2016-05-12T11:00:44.975Z,93152
2016-05-12T11:01:44.837Z,99968
2016-05-12T11:02:44.810Z,92544
2016-05-12T11:03:44.983Z,87488
2016-05-12T11:04:45.158Z,89312
2016-05-12T11:05:44.973Z,88672
2016-05-12T11:06:45.008Z,88160
2016-05-12T11:07:44.808Z,81024
2016-05-12T11:08:44.967Z,78944
2016-05-12T11:09:44.952Z,82592
2016-05-12T11:10:44.956Z,79904
2016-05-12T11:11:44.959Z,80704
2016-05-12T11:12:44.946Z,87136
2016-05-12T11:13:44.949Z,88960
2016-05-12T11:14:44.810Z,88896
2016-05-12T11:15:44.954Z,87168
2016-05-12T11:16:44.644Z,82720
2016-05-12T11:17:44.943Z,84032
2016-05-12T11:18:44.930Z,86624
2016-05-12T11:19:44.933Z,88896
2016-05-12T11:20:44.951Z,91648
2016-05-12T11:21:44.923Z,93216
2016-05-12T11:22:44.926Z,91104
2016-05-12T11:23:44.928Z,86176
2016-05-12T11:24:44.931Z,82080
2016-05-12T11:25:44.934Z,87584
2016-05-12T11:26:44.921Z,87360
2016-05-12T11:27:44.923Z,82976
2016-05-12T11:28:44.910Z,85088
2016-05-12T11:29:44.913Z,84448
2016-05-12T11:30:44.916Z,86080
2016-05-12T11:31:45.184Z,88416
2016-05-12T11:32:44.920Z,92000
2016-05-12T11:33:45.862Z,92160
2016-05-12T11:34:44.926Z,87616
2016-05-12T11:35:44.897Z,88576
2016-05-12T11:36:44.761Z,93088
2016-05-12T11:37:44.747Z,92800
2016-05-12T11:38:44.922Z,90112
2016-05-12T11:39:44.908Z,86944
2016-05-12T11:40:44.912Z,90368
2016-05-12T11:41:44.742Z,91424
2016-05-12T11:42:44.901Z,93088
2016-05-12T11:43:44.748Z,93600
2016-05-12T11:44:44.891Z,94176
2016-05-12T11:45:44.894Z,95392
2016-05-12T11:46:44.897Z,96032
2016-05-12T11:47:44.899Z,95712
2016-05-12T11:48:44.902Z,95072
2016-05-12T11:49:44.904Z,93344
2016-05-12T11:50:44.736Z,85536
2016-05-12T11:51:44.738Z,82848
2016-05-12T11:52:44.881Z,85600
2016-05-12T11:53:44.884Z,87296
2016-05-12T11:54:44.887Z,92448
2016-05-12T11:55:44.890Z,94848
2016-05-12T11:56:44.876Z,91712
2016-05-12T11:57:44.879Z,93344
2016-05-12T11:58:44.882Z,91904
2016-05-12T11:59:44.884Z,91264
2016-05-12T12:00:44.731Z,90752
2016-05-12T12:01:45.171Z,90848
2016-05-12T12:02:44.893Z,95072
2016-05-12T12:03:44.880Z,97536
2016-05-12T12:04:44.898Z,100288
2016-05-12T12:05:44.884Z,98560
2016-05-12T12:06:44.872Z,95520
2016-05-12T12:07:44.875Z,97152
2016-05-12T12:08:44.861Z,95008
2016-05-12T12:09:44.896Z,90464
2016-05-12T12:10:44.727Z,92896
2016-05-12T12:11:44.869Z,97056
2016-05-12T12:12:44.888Z,91168
2016-05-12T12:13:44.563Z,87904
2016-05-12T12:14:44.862Z,86048
2016-05-12T12:15:44.911Z,87040
2016-05-12T12:16:44.883Z,88576
2016-05-12T12:17:44.886Z,82528
2016-05-12T12:18:44.874Z,82048
2016-05-12T12:19:44.860Z,88512
2016-05-12T12:20:44.863Z,88832
2016-05-12T12:21:44.865Z,85440
2016-05-12T12:22:44.556Z,82624
2016-05-12T12:23:44.902Z,82080
2016-05-12T12:24:44.858Z,86592
2016-05-12T12:25:44.860Z,90272
2016-05-12T12:26:44.863Z,88544
2016-05-12T12:27:44.866Z,84256
2016-05-12T12:28:44.868Z,87168
2016-05-12T12:29:44.715Z,88512
2016-05-12T12:30:44.858Z,89760
2016-05-12T12:31:44.892Z,89248
2016-05-12T12:32:44.849Z,85600
2016-05-12T12:33:44.695Z,83776
2016-05-12T12:34:44.697Z,82912
2016-05-12T12:35:44.747Z,79872
2016-05-12T12:36:44.859Z,79328
2016-05-12T12:37:44.862Z,85952
2016-05-12T12:38:44.865Z,86688
2016-05-12T12:39:44.695Z,84608
2016-05-12T12:40:44.854Z,84032
2016-05-12T12:41:44.873Z,85664
2016-05-12T12:42:44.844Z,85024
2016-05-12T12:43:44.862Z,84608
2016-05-12T12:44:44.864Z,82592
2016-05-12T12:45:44.696Z,83488
2016-05-12T12:46:44.886Z,83040
2016-05-12T12:47:44.872Z,80864
2016-05-12T12:48:44.860Z,81408
2016-05-12T12:49:44.862Z,81376
2016-05-12T12:50:44.850Z,79744
2016-05-12T12:51:44.540Z,77600
2016-05-12T12:52:44.699Z,73728
2016-05-12T12:53:44.858Z,72576
2016-05-12T12:54:44.860Z,76192
2016-05-12T12:55:44.848Z,81216
2016-05-12T12:56:44.694Z,79648
2016-05-12T12:57:44.854Z,77792
2016-05-12T12:58:44.699Z,80224
2016-05-12T12:59:44.702Z,82944
2016-05-12T13:00:44.862Z,82624
2016-05-12T13:01:45.114Z,84352
2016-05-12T13:02:44.851Z,86880
2016-05-12T13:03:44.853Z,83456
2016-05-12T13:04:44.700Z,82784
2016-05-12T13:05:44.859Z,83616
2016-05-12T13:06:44.877Z,84064
2016-05-12T13:07:44.848Z,82080
2016-05-12T13:08:44.851Z,80096
2016-05-12T13:09:44.853Z,76832
2016-05-12T13:10:44.856Z,73184
2016-05-12T13:11:44.844Z,76512
2016-05-12T13:12:44.847Z,77056
2016-05-12T13:13:44.865Z,75968
2016-05-12T13:14:44.868Z,78144
2016-05-12T13:15:44.869Z,83456
2016-05-12T13:16:44.873Z,80608
2016-05-12T13:17:44.860Z,72992
2016-05-12T13:18:44.863Z,67392
2016-05-12T13:19:44.709Z,76000
2016-05-12T13:20:44.852Z,78976
2016-05-12T13:21:44.871Z,72480
2016-05-12T13:22:44.857Z,84480
2016-05-12T13:23:44.844Z,85952
2016-05-12T13:24:44.863Z,83456
2016-05-12T13:25:44.849Z,80736